createdAt,value
2023-06-22T00:00:16.508Z,19.94
2023-06-22T00:03:26.034Z,19.94
2023-06-22T00:06:27.766Z,19.83
2023-06-22T00:09:29.333Z,19.67
2023-06-22T00:12:31.244Z,19.57
2023-06-22T00:15:33.350Z,19.53
2023-06-22T00:18:35.022Z,19.51
2023-06-22T00:21:36.723Z,19.47
2023-06-22T00:24:38.336Z,19.37
2023-06-22T00:27:40.208Z,19.29
2023-06-22T00:30:42.096Z,19.14
2023-06-22T00:33:43.741Z,19.15
2023-06-22T00:36:45.535Z,19.17
2023-06-22T00:39:47.204Z,19.15
2023-06-22T00:42:48.823Z,19.13
2023-06-22T00:45:50.556Z,19.18
2023-06-22T00:48:53.675Z,19.11
2023-06-22T00:51:58.322Z,19.12
2023-06-22T00:55:02.827Z,19.13
2023-06-22T00:58:08.935Z,19.09
2023-06-22T01:01:10.777Z,19.06
2023-06-22T01:04:13.073Z,19.01
2023-06-22T01:07:39.692Z,19.05
2023-06-22T01:11:06.721Z,19.02
2023-06-22T01:14:15.429Z,18.97
2023-06-22T01:17:18.763Z,18.94
2023-06-22T01:20:22.112Z,18.90
2023-06-22T01:23:52.616Z,18.80
2023-06-22T01:27:06.646Z,18.69
2023-06-22T01:30:11.689Z,18.62
2023-06-22T01:33:15.028Z,18.58
2023-06-22T01:36:18.345Z,18.50
2023-06-22T01:39:23.217Z,18.40
2023-06-22T01:42:29.534Z,18.35
2023-06-22T01:45:32.142Z,18.26
2023-06-22T01:48:34.142Z,18.19
2023-06-22T01:51:37.386Z,18.18
2023-06-22T01:54:41.238Z,18.21
2023-06-22T01:57:43.046Z,18.20
2023-06-22T02:00:54.436Z,18.26
2023-06-22T02:04:13.975Z,18.28
2023-06-22T02:07:18.391Z,18.34
2023-06-22T02:10:22.910Z,18.36
2023-06-22T02:13:26.167Z,18.32
2023-06-22T02:16:31.147Z,18.32
2023-06-22T02:19:34.423Z,18.34
2023-06-22T02:22:37.170Z,18.37
2023-06-22T02:25:38.917Z,18.37
2023-06-22T02:28:40.634Z,18.41
2023-06-22T02:31:42.552Z,18.36
2023-06-22T02:34:48.825Z,18.32
2023-06-22T02:37:53.073Z,18.21
2023-06-22T02:40:54.781Z,18.23
2023-06-22T02:43:56.512Z,18.15
2023-06-22T02:46:59.360Z,18.18
2023-06-22T02:50:01.650Z,18.14
2023-06-22T02:53:05.392Z,18.04
2023-06-22T02:56:11.659Z,18.03
2023-06-22T02:59:13.413Z,18.04
2023-06-22T03:02:15.442Z,18.08
2023-06-22T03:05:19.597Z,18.07
2023-06-22T03:08:22.901Z,17.99
2023-06-22T03:11:24.862Z,17.95
2023-06-22T03:14:26.502Z,17.95
2023-06-22T03:17:28.971Z,17.94
2023-06-22T03:20:34.995Z,17.97
2023-06-22T03:23:37.618Z,17.95
2023-06-22T03:26:39.174Z,18.02
2023-06-22T03:29:40.810Z,18.12
2023-06-22T03:32:43.929Z,18.18
2023-06-22T03:35:45.671Z,18.25
2023-06-22T03:38:48.909Z,18.31
2023-06-22T03:41:50.621Z,18.36
2023-06-22T03:44:53.323Z,18.39
2023-06-22T03:47:55.022Z,18.43
2023-06-22T03:50:56.626Z,18.54
2023-06-22T03:53:58.262Z,18.65
2023-06-22T03:57:00.963Z,18.70
2023-06-22T04:00:03.918Z,18.81
2023-06-22T04:03:15.043Z,18.83
2023-06-22T04:06:16.871Z,18.83
2023-06-22T04:09:18.834Z,18.82
2023-06-22T04:12:20.723Z,18.84
2023-06-22T04:15:22.720Z,18.84
2023-06-22T04:18:24.432Z,18.90
2023-06-22T04:21:26.086Z,19.01
2023-06-22T04:24:27.954Z,19.04
2023-06-22T04:27:29.650Z,19.10
2023-06-22T04:30:32.800Z,19.12
2023-06-22T04:33:34.519Z,19.18
2023-06-22T04:36:42.593Z,19.22
2023-06-22T04:39:44.536Z,19.28
2023-06-22T04:42:53.625Z,19.34
2023-06-22T04:45:55.280Z,19.47
2023-06-22T04:48:56.963Z,19.59
2023-06-22T04:51:58.563Z,19.69
2023-06-22T04:55:01.460Z,19.73
2023-06-22T04:58:05.823Z,19.76
2023-06-22T05:01:09.973Z,19.76
2023-06-22T05:04:12.016Z,19.77
2023-06-22T05:07:14.418Z,19.81
2023-06-22T05:10:16.435Z,19.93
2023-06-22T05:13:18.005Z,20.00
2023-06-22T05:16:24.827Z,20.15
2023-06-22T05:19:32.612Z,20.27
2023-06-22T05:22:34.666Z,20.42
2023-06-22T05:25:36.394Z,20.56
2023-06-22T05:28:38.165Z,20.68
2023-06-22T05:31:41.726Z,20.78
2023-06-22T05:34:43.659Z,20.88
2023-06-22T05:37:45.946Z,20.95
2023-06-22T05:40:49.091Z,21.02
2023-06-22T05:43:50.925Z,21.07
2023-06-22T05:46:52.673Z,21.04
2023-06-22T05:49:54.447Z,21.03
2023-06-22T05:52:56.080Z,20.96
2023-06-22T05:55:58.059Z,20.93
2023-06-22T05:58:59.674Z,20.86
2023-06-22T06:02:01.363Z,20.86
2023-06-22T06:05:03.736Z,20.93
2023-06-22T06:08:07.015Z,20.93
2023-06-22T06:11:08.843Z,21.00
2023-06-22T06:14:10.600Z,21.04
2023-06-22T06:17:12.598Z,21.15
2023-06-22T06:20:14.385Z,21.25
2023-06-22T06:23:16.127Z,21.26
2023-06-22T06:26:18.134Z,21.32
2023-06-22T06:29:19.833Z,21.34
2023-06-22T06:32:21.597Z,21.30
2023-06-22T06:35:23.407Z,21.32
2023-06-22T06:38:25.027Z,21.32
2023-06-22T06:41:26.802Z,21.37
2023-06-22T06:44:28.862Z,21.42
2023-06-22T06:47:30.764Z,21.47
2023-06-22T06:50:32.940Z,21.61
2023-06-22T06:53:34.967Z,21.78
2023-06-22T06:56:36.930Z,21.87
2023-06-22T06:59:38.606Z,22.00
2023-06-22T07:02:41.464Z,22.09
2023-06-22T07:05:43.113Z,22.14
2023-06-22T07:08:44.863Z,22.24
2023-06-22T07:11:46.494Z,22.35
2023-06-22T07:14:48.334Z,22.46
2023-06-22T07:17:49.978Z,22.57
2023-06-22T07:20:51.712Z,22.68
2023-06-22T07:23:53.420Z,22.79
2023-06-22T07:26:55.393Z,22.91
2023-06-22T07:29:57.180Z,23.00
2023-06-22T07:33:00.150Z,22.99
2023-06-22T07:36:02.409Z,22.92
2023-06-22T07:39:05.029Z,22.90
2023-06-22T07:42:06.941Z,22.94
2023-06-22T07:45:09.645Z,23.08
2023-06-22T07:48:11.618Z,23.40
2023-06-22T07:51:15.995Z,23.71
2023-06-22T07:54:18.460Z,23.92
2023-06-22T07:57:20.994Z,24.10
2023-06-22T08:00:23.022Z,24.29
2023-06-22T08:03:24.756Z,24.45
2023-06-22T08:06:26.695Z,24.65
2023-06-22T08:09:35.195Z,24.82
2023-06-22T08:12:36.870Z,24.93
2023-06-22T08:15:38.530Z,25.15
2023-06-22T08:18:40.536Z,25.33
2023-06-22T08:21:42.202Z,25.45
2023-06-22T08:24:43.930Z,25.48
2023-06-22T08:27:51.671Z,25.54
2023-06-22T08:30:53.373Z,25.62
2023-06-22T08:33:55.086Z,25.71
2023-06-22T08:36:56.703Z,25.83
2023-06-22T08:40:00.718Z,25.94
2023-06-22T08:43:02.519Z,26.00
2023-06-22T08:46:04.319Z,26.02
2023-06-22T08:49:06.279Z,26.05
2023-06-22T08:52:09.020Z,26.27
2023-06-22T08:55:11.344Z,26.53
2023-06-22T08:58:16.720Z,26.74
2023-06-22T09:01:18.261Z,26.94
2023-06-22T09:04:20.072Z,26.99
2023-06-22T09:07:23.504Z,26.82
2023-06-22T09:10:26.372Z,26.83
2023-06-22T09:13:31.609Z,26.94
2023-06-22T09:16:33.520Z,27.28
2023-06-22T09:19:35.192Z,27.55
2023-06-22T09:22:37.035Z,27.70
2023-06-22T09:25:38.659Z,27.69
2023-06-22T09:28:40.285Z,27.58
2023-06-22T09:31:42.286Z,27.55
2023-06-22T09:34:44.399Z,27.46
2023-06-22T09:37:46.659Z,27.60
2023-06-22T09:40:48.460Z,27.80
2023-06-22T09:43:50.241Z,27.83
2023-06-22T09:46:52.207Z,27.90
2023-06-22T09:49:55.451Z,27.79
2023-06-22T09:52:57.038Z,27.77
2023-06-22T09:55:59.045Z,27.84
2023-06-22T09:59:14.042Z,28.01
2023-06-22T10:02:20.014Z,28.08
2023-06-22T10:05:22.131Z,28.04
2023-06-22T10:08:23.925Z,27.90
2023-06-22T10:11:30.290Z,27.74
2023-06-22T10:14:32.378Z,27.39
2023-06-22T10:17:34.507Z,27.15
2023-06-22T10:20:36.384Z,26.90
2023-06-22T10:23:38.140Z,26.85
2023-06-22T10:26:40.025Z,26.97
2023-06-22T10:29:42.722Z,27.13
2023-06-22T10:32:44.969Z,27.20
2023-06-22T10:35:47.082Z,27.19
2023-06-22T10:38:49.249Z,27.16
2023-06-22T10:41:50.859Z,27.15
2023-06-22T10:44:52.579Z,27.35
2023-06-22T10:47:54.503Z,27.53
2023-06-22T10:50:56.286Z,27.74
2023-06-22T10:53:58.190Z,27.75
2023-06-22T10:56:59.965Z,27.70
2023-06-22T11:00:01.905Z,27.74
2023-06-22T11:03:03.990Z,27.95
2023-06-22T11:06:05.888Z,28.13
2023-06-22T11:12:13.826Z,28.23
2023-06-22T11:15:15.503Z,28.10
2023-06-22T11:18:17.434Z,28.02
2023-06-22T11:21:19.201Z,27.95
2023-06-22T11:24:21.237Z,27.88
2023-06-22T11:27:22.992Z,28.00
2023-06-22T11:30:25.185Z,28.26
2023-06-22T11:33:27.236Z,28.53
2023-06-22T11:36:30.294Z,28.80
2023-06-22T11:39:40.200Z,29.42
2023-06-22T11:42:45.107Z,30.62
2023-06-22T11:45:47.100Z,31.69
2023-06-22T11:48:48.981Z,32.05
2023-06-22T11:51:50.805Z,31.93
2023-06-22T11:54:52.612Z,32.02
2023-06-22T11:57:57.018Z,32.04
2023-06-22T12:00:58.834Z,31.47
2023-06-22T12:04:00.614Z,30.76
2023-06-22T12:07:03.535Z,30.44
2023-06-22T12:10:06.853Z,30.42
2023-06-22T12:13:08.663Z,30.60
2023-06-22T12:16:11.037Z,30.77
2023-06-22T12:19:13.156Z,30.82
2023-06-22T12:22:15.127Z,30.93
2023-06-22T12:25:16.970Z,30.98
2023-06-22T12:28:18.888Z,30.93
2023-06-22T12:31:20.602Z,30.78
2023-06-22T12:34:26.326Z,30.77
2023-06-22T12:37:28.544Z,30.93
2023-06-22T12:40:30.930Z,31.08
2023-06-22T12:43:32.955Z,31.04
2023-06-22T12:46:38.915Z,30.88
2023-06-22T12:49:40.908Z,30.51
2023-06-22T12:52:43.575Z,30.17
2023-06-22T12:55:45.378Z,29.83
2023-06-22T12:58:47.193Z,29.55
2023-06-22T13:01:49.046Z,29.36
2023-06-22T13:04:50.880Z,29.11
2023-06-22T13:07:52.661Z,28.10
2023-06-22T13:10:54.355Z,26.64
2023-06-22T13:13:56.128Z,25.67
2023-06-22T13:16:58.021Z,25.01
2023-06-22T13:19:59.921Z,24.73
2023-06-22T13:23:01.893Z,24.82
2023-06-22T13:26:04.188Z,25.09
2023-06-22T13:29:06.084Z,25.60
2023-06-22T13:32:08.193Z,25.99
2023-06-22T13:35:13.625Z,26.10
2023-06-22T13:38:15.665Z,26.09
2023-06-22T13:41:17.405Z,26.04
2023-06-22T13:44:19.154Z,26.02
2023-06-22T13:47:21.205Z,26.05
2023-06-22T13:50:24.804Z,26.16
2023-06-22T13:53:29.514Z,26.29
2023-06-22T13:56:31.182Z,26.38
2023-06-22T13:59:33.158Z,26.24
2023-06-22T14:02:34.974Z,25.91
2023-06-22T14:05:36.952Z,25.25
2023-06-22T14:08:42.130Z,24.46
2023-06-22T14:11:44.511Z,24.02
2023-06-22T14:14:46.368Z,23.77
2023-06-22T14:17:48.247Z,23.70
2023-06-22T14:20:50.597Z,23.71
2023-06-22T14:23:52.419Z,23.74
2023-06-22T14:26:55.679Z,23.61
2023-06-22T14:29:57.618Z,23.49
2023-06-22T14:32:59.465Z,23.51
2023-06-22T14:36:01.073Z,23.53
2023-06-22T14:39:03.090Z,23.46
2023-06-22T14:42:05.010Z,23.41
2023-06-22T14:45:07.469Z,23.51
2023-06-22T14:48:09.271Z,23.58
2023-06-22T14:51:14.473Z,23.63
2023-06-22T14:54:18.911Z,23.60
2023-06-22T14:57:21.346Z,23.55
2023-06-22T15:00:25.883Z,23.53
2023-06-22T15:03:29.922Z,23.40
2023-06-22T15:06:31.625Z,22.96
2023-06-22T15:09:34.353Z,22.41
2023-06-22T15:12:36.237Z,22.10
2023-06-22T15:15:37.889Z,21.85
2023-06-22T15:18:41.912Z,21.65
2023-06-22T15:21:44.500Z,21.69
2023-06-22T15:24:49.163Z,21.72
2023-06-22T15:27:50.907Z,22.05
2023-06-22T15:30:53.369Z,21.95
2023-06-22T15:33:55.296Z,21.91
2023-06-22T15:36:57.177Z,21.88
2023-06-22T15:39:59.851Z,21.86
2023-06-22T15:43:01.657Z,21.96
2023-06-22T15:46:03.357Z,22.66
2023-06-22T15:49:05.413Z,23.06
2023-06-22T15:52:07.622Z,23.68
2023-06-22T15:55:10.822Z,22.88
2023-06-22T15:58:14.090Z,22.39
2023-06-22T16:01:16.418Z,22.40
2023-06-22T16:04:18.759Z,22.21
2023-06-22T16:07:21.009Z,22.63
2023-06-22T16:10:22.931Z,23.20
2023-06-22T16:13:24.723Z,23.15
2023-06-22T16:16:32.622Z,23.04
2023-06-22T16:19:34.898Z,23.01
2023-06-22T16:22:37.187Z,22.91
2023-06-22T16:25:39.135Z,22.48
2023-06-22T16:28:41.213Z,21.43
2023-06-22T16:31:44.038Z,21.26
2023-06-22T16:34:49.176Z,21.26
2023-06-22T16:37:50.979Z,21.22
2023-06-22T16:40:53.268Z,21.12
2023-06-22T16:43:55.310Z,21.21
2023-06-22T16:46:59.145Z,20.99
2023-06-22T16:50:01.138Z,20.86
2023-06-22T16:53:03.113Z,20.93
2023-06-22T16:56:05.280Z,20.82
2023-06-22T16:59:08.252Z,20.97
2023-06-22T17:02:18.908Z,21.02
2023-06-22T17:05:20.762Z,21.07
2023-06-22T17:08:23.947Z,20.73
2023-06-22T17:11:26.413Z,20.64
2023-06-22T17:14:29.496Z,20.48
2023-06-22T17:17:31.952Z,20.53
2023-06-22T17:20:33.865Z,20.52
2023-06-22T17:23:36.172Z,20.63
2023-06-22T17:26:38.223Z,20.55
2023-06-22T17:29:42.031Z,20.65
2023-06-22T17:32:47.273Z,20.54
2023-06-22T17:35:57.178Z,20.43
2023-06-22T17:39:07.652Z,20.41
2023-06-22T17:42:11.619Z,20.39
2023-06-22T17:45:29.783Z,20.43
2023-06-22T17:48:34.053Z,20.43
2023-06-22T17:51:47.091Z,20.47
2023-06-22T17:58:03.178Z,20.40
2023-06-22T18:01:08.205Z,20.33
2023-06-22T18:04:15.562Z,20.31
2023-06-22T18:07:21.086Z,20.24
2023-06-22T18:10:29.712Z,20.18
2023-06-22T18:13:37.184Z,20.14
2023-06-22T18:16:46.695Z,20.12
2023-06-22T18:19:52.887Z,20.10
2023-06-22T18:23:00.824Z,20.08
2023-06-22T18:26:09.610Z,20.06
2023-06-22T18:33:08.302Z,19.89
2023-06-22T18:36:12.761Z,19.93
2023-06-22T18:47:49.004Z,19.95
2023-06-22T18:51:12.804Z,19.91
2023-06-22T18:54:39.908Z,19.89
2023-06-22T18:57:47.604Z,19.88
2023-06-22T19:01:37.648Z,19.77
2023-06-22T19:05:02.608Z,19.71
2023-06-22T19:08:27.007Z,19.69
2023-06-22T19:11:53.083Z,19.69
2023-06-22T19:15:27.742Z,19.70
2023-06-22T19:19:11.439Z,19.71
2023-06-22T19:26:54.227Z,19.73
2023-06-22T19:29:57.534Z,19.74
2023-06-22T19:33:00.013Z,19.75
2023-06-22T19:36:04.359Z,19.78
2023-06-22T19:39:07.123Z,19.68
2023-06-22T19:42:09.721Z,19.63
2023-06-22T19:45:17.900Z,19.57
2023-06-22T19:48:20.388Z,19.50
2023-06-22T19:51:23.301Z,19.47
2023-06-22T19:54:26.105Z,19.41
2023-06-22T19:57:28.587Z,19.38
2023-06-22T20:00:31.439Z,19.31
2023-06-22T20:03:49.034Z,19.29
2023-06-22T20:07:07.456Z,19.27
2023-06-22T20:10:23.740Z,19.25
2023-06-22T20:13:26.811Z,19.25
2023-06-22T20:16:32.115Z,19.23
2023-06-22T20:19:42.406Z,19.21
2023-06-22T20:22:58.121Z,19.20
2023-06-22T20:26:08.556Z,19.22
2023-06-22T20:29:43.386Z,19.22
2023-06-22T20:33:01.272Z,19.26
2023-06-22T20:36:11.827Z,19.25
2023-06-22T20:39:29.623Z,19.34
2023-06-22T20:42:59.698Z,19.29
2023-06-22T20:46:28.458Z,19.25
2023-06-22T20:49:38.887Z,19.30
2023-06-22T20:52:45.750Z,19.35
2023-06-22T20:56:03.760Z,19.35
2023-06-22T21:03:12.325Z,19.28
2023-06-22T21:06:20.230Z,19.19
2023-06-22T21:09:23.659Z,19.07
2023-06-22T21:12:28.168Z,19.04
2023-06-22T21:15:31.089Z,18.98
2023-06-22T21:18:42.477Z,18.94
2023-06-22T21:21:46.541Z,18.92
2023-06-22T21:25:21.751Z,18.89
2023-06-22T21:28:37.564Z,18.88
2023-06-22T21:31:53.634Z,18.89
2023-06-22T21:35:03.186Z,18.99
2023-06-22T21:38:25.162Z,19.06
2023-06-22T21:45:37.636Z,19.16
2023-06-22T21:48:40.873Z,19.22
2023-06-22T21:51:43.005Z,19.40
2023-06-22T21:54:45.116Z,19.52
2023-06-22T21:57:47.151Z,19.66
2023-06-22T22:00:48.985Z,19.53
2023-06-22T22:03:52.406Z,19.60
2023-06-22T22:06:55.055Z,19.50
2023-06-22T22:09:57.560Z,19.50
2023-06-22T22:12:59.596Z,19.63
2023-06-22T22:16:02.456Z,19.61
2023-06-22T22:19:04.367Z,19.65
2023-06-22T22:22:07.259Z,19.68
2023-06-22T22:25:09.694Z,19.59
2023-06-22T22:28:11.638Z,19.61
2023-06-22T22:31:14.449Z,19.63
2023-06-22T22:34:16.845Z,19.64
2023-06-22T22:37:19.462Z,19.63
2023-06-22T22:40:21.680Z,19.61
2023-06-22T22:43:23.820Z,19.64
2023-06-22T22:46:27.248Z,19.61
2023-06-22T22:49:31.667Z,19.63
2023-06-22T22:52:39.053Z,19.65
2023-06-22T22:55:41.598Z,19.65
2023-06-22T22:58:45.649Z,19.65
2023-06-22T23:01:56.902Z,19.65
2023-06-22T23:05:36.114Z,19.74
2023-06-22T23:08:57.530Z,19.82
2023-06-22T23:12:00.903Z,19.78
2023-06-22T23:15:07.720Z,19.74
2023-06-22T23:18:10.548Z,19.72
2023-06-22T23:21:13.132Z,19.76
2023-06-22T23:24:15.265Z,19.73
2023-06-22T23:27:17.746Z,19.76
2023-06-22T23:30:20.844Z,19.67
2023-06-22T23:33:25.668Z,19.67
2023-06-22T23:36:28.050Z,19.66
2023-06-22T23:39:30.471Z,19.63
2023-06-22T23:42:32.678Z,19.49
2023-06-22T23:45:35.418Z,19.42
2023-06-22T23:48:37.801Z,19.30
2023-06-22T23:51:39.871Z,19.23
2023-06-22T23:54:41.960Z,19.20
2023-06-22T23:57:45.144Z,19.21
